首页
METAR-TAF:

METAR-TAF

机场 :

巴統國際機場

巴统, 格鲁吉亚

纬度: 41-36-37N, 经度: 041-35-58E, 海拔: 32米

当前天气观测

该预报发布于30分钟前的08:30 UTC
风速14节,风向西南
温度 12°C
湿度 88%
气压 1012 hPa
能见度10公里或以上
散云层高于13000英尺

METAR: UGSB 010830Z 23014KT 9999 SCT130 12/10 Q1012 NOSIG

时间: 13:00 (09:00 UTC)

预报

该预报发布于4小时和0分钟前的05:00 UTC
预报有效从01日的 06点(UTC)到 02日的 06点(UTC)
风速7节,风向西南
能见度10公里或以上
散云层高于10000英尺
短暂存在
从 01日的 06点(UTC)到 01日的 10点(UTC)
风速17节,风向西南
成为
从 01日的 09点(UTC)到 01日的 12点(UTC)
散云层高于2300英尺
多云层高于5000英尺
小雨
短暂存在
从 01日的 10点(UTC)到 01日的 22点(UTC)
风速17节,风向西转西南,有时为27节阵风
能見度: 4500
散云层高于1200英尺
多云层高于2500英尺, 积雨云.
阵雨
短暂存在
从 01日的 22点(UTC)到 02日的 06点(UTC)
风速18节,风向西转西南
能見度: 4500
散云层高于1500英尺
多云层高于2500英尺, 积雨云.
阵雨

TAF: UGSB 010500Z 0106/0206 22007KT 9999 SCT100 TX13/0111Z TN09/0201Z TEMPO 0106/0110 23017KT BECMG 0109/0112 -RA SCT023 BKN050 TEMPO 0110/0122 24017G27KT 4500 SHRA SCT012 BKN025CB TEMPO 0122/0206 24018KT 4500 SHRA SCT015 BKN025CB

超过4000个机场的气象观测和天气预报(METAR&TAF报告)。

可查询的气象台以黄色和红色小点在地图上表示。

将鼠标移到小点上方,可查看气象台名称。

然后点击查看天气观测和预报。

如需切换地图:点击带黑十字的绿色按钮放大地图;点击带横线的绿色按钮缩小地图;或者点击绿色箭头查看邻近地区的地图。


METAR-TAF: